UAL1422 KDCA-KLGA
Flight info
| Callsign | UAL1422 |
|---|---|
| Flight time | 0h 40m |
| Altitude | 27000 |
| Route | DOCTR5 AGARD SPEAK PROUD2 |
| Aircraft | B738/M-SDE2E3FGHIRWXY/LB1 |
Departure
| Time | 2026-04-21 20:50 |
|---|---|
| Airport | Ronald Reagan Washington National Airport (KDCA) |
Arrival
| Time | 2026-04-21 21:30 |
|---|---|
| Airport | LaGuardia Airport (KLGA) |
| Time | Latitude | Longitude | Altitude | Speed | Heading |
|---|---|---|---|---|---|
| 2026-04-21 20:41 | 38.85557 | -77.04218 | 27 ft | 0 kts | 338° |
| 2026-04-21 20:44 | 38.85545 | -77.04212 | 26 ft | 4 kts | 346° |
| 2026-04-21 20:44 | 38.85519 | -77.04210 | 24 ft | 4 kts | 22° |
| 2026-04-21 20:44 | 38.85503 | -77.04228 | 24 ft | 2 kts | 71° |
| 2026-04-21 20:45 | 38.85502 | -77.04230 | 24 ft | 1 kts | 72° |
| 2026-04-21 20:47 | 38.85508 | -77.04208 | 24 ft | 7 kts | 72° |
| 2026-04-21 20:48 | 38.85527 | -77.04131 | 23 ft | 10 kts | 73° |
| 2026-04-21 20:48 | 38.85547 | -77.04046 | 24 ft | 10 kts | 73° |
| 2026-04-21 20:48 | 38.85576 | -77.03971 | 25 ft | 10 kts | 28° |
| 2026-04-21 20:48 | 38.85640 | -77.03966 | 26 ft | 9 kts | 359° |
| 2026-04-21 20:49 | 38.85731 | -77.03975 | 29 ft | 18 kts | 355° |
| 2026-04-21 20:49 | 38.85866 | -77.03988 | 25 ft | 19 kts | 358° |
| 2026-04-21 20:49 | 38.85887 | -77.03871 | 25 ft | 18 kts | 140° |
| 2026-04-21 20:49 | 38.85733 | -77.03835 | 25 ft | 46 kts | 175° |
| 2026-04-21 20:50 | 38.85119 | -77.03774 | 24 ft | 128 kts | 175° |
| 2026-04-21 20:50 | 38.84037 | -77.03659 | 392 ft | 175 kts | 173° |
| 2026-04-21 20:50 | 38.82708 | -77.03500 | 849 ft | 207 kts | 174° |
| 2026-04-21 20:50 | 38.81219 | -77.03293 | 1492 ft | 222 kts | 174° |
| 2026-04-21 20:51 | 38.79650 | -77.03063 | 1981 ft | 222 kts | 174° |
| 2026-04-21 20:51 | 38.78135 | -77.02828 | 2432 ft | 227 kts | 174° |
| 2026-04-21 20:51 | 38.76566 | -77.02470 | 2881 ft | 229 kts | 159° |
| 2026-04-21 20:51 | 38.75278 | -77.01211 | 3269 ft | 248 kts | 128° |
| 2026-04-21 20:52 | 38.74741 | -76.99076 | 4121 ft | 260 kts | 91° |
| 2026-04-21 20:52 | 38.74880 | -76.96691 | 4718 ft | 275 kts | 84° |
| 2026-04-21 20:52 | 38.75032 | -76.94246 | 5032 ft | 278 kts | 84° |
| 2026-04-21 20:52 | 38.75269 | -76.92625 | 5124 ft | 283 kts | 69° |
| 2026-04-21 20:53 | 38.76268 | -76.90480 | 5098 ft | 279 kts | 41° |
| 2026-04-21 20:53 | 38.78430 | -76.88823 | 5022 ft | 272 kts | 22° |
| 2026-04-21 20:53 | 38.79572 | -76.88086 | 5008 ft | 271 kts | 24° |
| 2026-04-21 20:53 | 38.81752 | -76.86543 | 4999 ft | 269 kts | 27° |
| 2026-04-21 20:54 | 38.82822 | -76.85739 | 4993 ft | 269 kts | 28° |
| 2026-04-21 20:54 | 38.84426 | -76.84510 | 4997 ft | 269 kts | 28° |
| 2026-04-21 20:54 | 38.86008 | -76.83197 | 4993 ft | 274 kts | 39° |
| 2026-04-21 20:54 | 38.87113 | -76.81188 | 5002 ft | 279 kts | 63° |
| 2026-04-21 20:55 | 38.87952 | -76.78934 | 5050 ft | 282 kts | 64° |
| 2026-04-21 20:55 | 38.88800 | -76.76639 | 5738 ft | 286 kts | 62° |
| 2026-04-21 20:55 | 38.89845 | -76.73814 | 6900 ft | 290 kts | 60° |
| 2026-04-21 20:55 | 38.91428 | -76.69555 | 8533 ft | 295 kts | 59° |
| 2026-04-21 20:56 | 38.92323 | -76.67164 | 9453 ft | 298 kts | 58° |
| 2026-04-21 20:56 | 38.93232 | -76.64743 | 10315 ft | 304 kts | 58° |
| 2026-04-21 20:56 | 38.94188 | -76.62209 | 10652 ft | 328 kts | 58° |
| 2026-04-21 20:56 | 38.95180 | -76.59439 | 10859 ft | 355 kts | 61° |
| 2026-04-21 20:57 | 38.96166 | -76.56419 | 11108 ft | 377 kts | 62° |
| 2026-04-21 20:57 | 38.97170 | -76.53252 | 11724 ft | 385 kts | 62° |
| 2026-04-21 20:57 | 38.98184 | -76.50065 | 12584 ft | 386 kts | 62° |
| 2026-04-21 20:57 | 38.99211 | -76.46877 | 13477 ft | 386 kts | 61° |
| 2026-04-21 20:58 | 39.00241 | -76.43713 | 14189 ft | 392 kts | 61° |
| 2026-04-21 20:58 | 39.01198 | -76.40393 | 14821 ft | 403 kts | 71° |
| 2026-04-21 20:58 | 39.01643 | -76.36784 | 15508 ft | 412 kts | 78° |
| 2026-04-21 20:58 | 39.01951 | -76.33102 | 16212 ft | 415 kts | 79° |
| 2026-04-21 20:59 | 39.02256 | -76.29393 | 16880 ft | 419 kts | 78° |
| 2026-04-21 20:59 | 39.02586 | -76.25652 | 17526 ft | 422 kts | 78° |
| 2026-04-21 20:59 | 39.02940 | -76.21879 | 18178 ft | 426 kts | 78° |
| 2026-04-21 20:59 | 39.03311 | -76.18076 | 18786 ft | 430 kts | 77° |
| 2026-04-21 21:00 | 39.03685 | -76.14295 | 19335 ft | 434 kts | 77° |
| 2026-04-21 21:00 | 39.04069 | -76.10420 | 19792 ft | 440 kts | 77° |
| 2026-04-21 21:00 | 39.04448 | -76.06502 | 20330 ft | 444 kts | 78° |
| 2026-04-21 21:00 | 39.04703 | -76.02518 | 20914 ft | 448 kts | 81° |
| 2026-04-21 21:01 | 39.04860 | -75.98496 | 21455 ft | 452 kts | 82° |
| 2026-04-21 21:01 | 39.04995 | -75.94439 | 21963 ft | 456 kts | 82° |
| 2026-04-21 21:01 | 39.05140 | -75.90345 | 22463 ft | 459 kts | 82° |
| 2026-04-21 21:01 | 39.05305 | -75.86227 | 22954 ft | 462 kts | 82° |
| 2026-04-21 21:02 | 39.05482 | -75.82079 | 23439 ft | 465 kts | 82° |
| 2026-04-21 21:02 | 39.05742 | -75.77923 | 23912 ft | 464 kts | 74° |
| 2026-04-21 21:02 | 39.06765 | -75.74062 | 24313 ft | 452 kts | 56° |
| 2026-04-21 21:02 | 39.08510 | -75.70779 | 24750 ft | 440 kts | 41° |
| 2026-04-21 21:03 | 39.10645 | -75.67953 | 24996 ft | 442 kts | 38° |
| 2026-04-21 21:03 | 39.12851 | -75.65143 | 25003 ft | 450 kts | 38° |
| 2026-04-21 21:03 | 39.15059 | -75.62316 | 25020 ft | 454 kts | 39° |
| 2026-04-21 21:03 | 39.17279 | -75.59420 | 25005 ft | 453 kts | 39° |
| 2026-04-21 21:04 | 39.19470 | -75.56518 | 24996 ft | 450 kts | 39° |
| 2026-04-21 21:04 | 39.21671 | -75.53590 | 25004 ft | 448 kts | 39° |
| 2026-04-21 21:04 | 39.23883 | -75.50781 | 24998 ft | 443 kts | 33° |
| 2026-04-21 21:04 | 39.26304 | -75.48471 | 25021 ft | 437 kts | 28° |
| 2026-04-21 21:05 | 39.28839 | -75.46309 | 25017 ft | 436 kts | 27° |
| 2026-04-21 21:05 | 39.31388 | -75.44168 | 25017 ft | 437 kts | 27° |
| 2026-04-21 21:05 | 39.33931 | -75.42001 | 25047 ft | 439 kts | 27° |
| 2026-04-21 21:05 | 39.36466 | -75.39797 | 25019 ft | 437 kts | 28° |
| 2026-04-21 21:06 | 39.38941 | -75.37607 | 25013 ft | 426 kts | 28° |
| 2026-04-21 21:06 | 39.41372 | -75.35439 | 25017 ft | 422 kts | 28° |
| 2026-04-21 21:06 | 39.43797 | -75.33278 | 25031 ft | 424 kts | 28° |
| 2026-04-21 21:06 | 39.46236 | -75.31104 | 25026 ft | 425 kts | 28° |
| 2026-04-21 21:07 | 39.48646 | -75.28954 | 25026 ft | 426 kts | 28° |
| 2026-04-21 21:07 | 39.51083 | -75.26774 | 25022 ft | 427 kts | 28° |
| 2026-04-21 21:07 | 39.53507 | -75.24540 | 25036 ft | 427 kts | 29° |
| 2026-04-21 21:07 | 39.55912 | -75.22278 | 25029 ft | 427 kts | 29° |
| 2026-04-21 21:08 | 39.58315 | -75.20008 | 25020 ft | 427 kts | 29° |
| 2026-04-21 21:08 | 39.60716 | -75.17742 | 25015 ft | 426 kts | 29° |
| 2026-04-21 21:08 | 39.63123 | -75.15477 | 25016 ft | 425 kts | 29° |
| 2026-04-21 21:08 | 39.65521 | -75.13225 | 25014 ft | 425 kts | 29° |
| 2026-04-21 21:09 | 39.67883 | -75.11006 | 25012 ft | 424 kts | 29° |
| 2026-04-21 21:09 | 39.70304 | -75.08836 | 25011 ft | 422 kts | 27° |
| 2026-04-21 21:09 | 39.72763 | -75.06742 | 25018 ft | 421 kts | 26° |
| 2026-04-21 21:09 | 39.75224 | -75.04668 | 25020 ft | 421 kts | 26° |
| 2026-04-21 21:10 | 39.77679 | -75.02587 | 25010 ft | 421 kts | 27° |
| 2026-04-21 21:10 | 39.80129 | -75.00489 | 25010 ft | 421 kts | 27° |
| 2026-04-21 21:10 | 39.82571 | -74.98383 | 25006 ft | 421 kts | 27° |
| 2026-04-21 21:10 | 39.85008 | -74.96276 | 25008 ft | 421 kts | 27° |
| 2026-04-21 21:11 | 39.87396 | -74.94146 | 25009 ft | 422 kts | 28° |
| 2026-04-21 21:11 | 39.89797 | -74.91956 | 25002 ft | 422 kts | 28° |
| 2026-04-21 21:11 | 39.92191 | -74.89739 | 25027 ft | 424 kts | 30° |
| 2026-04-21 21:11 | 39.94345 | -74.87039 | 25012 ft | 435 kts | 41° |
| 2026-04-21 21:12 | 39.96314 | -74.84034 | 25004 ft | 436 kts | 42° |
| 2026-04-21 21:12 | 39.98303 | -74.81055 | 25004 ft | 435 kts | 41° |
| 2026-04-21 21:12 | 40.00330 | -74.78122 | 25001 ft | 434 kts | 40° |
| 2026-04-21 21:12 | 40.02367 | -74.75216 | 25007 ft | 434 kts | 40° |
| 2026-04-21 21:13 | 40.04408 | -74.72305 | 24994 ft | 434 kts | 40° |
| 2026-04-21 21:13 | 40.06447 | -74.69385 | 24993 ft | 435 kts | 40° |
| 2026-04-21 21:13 | 40.08483 | -74.66459 | 25001 ft | 435 kts | 40° |
| 2026-04-21 21:13 | 40.10494 | -74.63563 | 25011 ft | 435 kts | 40° |
| 2026-04-21 21:14 | 40.12526 | -74.60637 | 25003 ft | 435 kts | 40° |
| 2026-04-21 21:14 | 40.14563 | -74.57702 | 24998 ft | 435 kts | 40° |
| 2026-04-21 21:14 | 40.16602 | -74.54761 | 24998 ft | 435 kts | 40° |
| 2026-04-21 21:14 | 40.18637 | -74.51823 | 24999 ft | 435 kts | 40° |
| 2026-04-21 21:15 | 40.20676 | -74.48896 | 25011 ft | 434 kts | 39° |
| 2026-04-21 21:15 | 40.22809 | -74.46122 | 25010 ft | 431 kts | 36° |
| 2026-04-21 21:15 | 40.24993 | -74.43439 | 25012 ft | 431 kts | 36° |
| 2026-04-21 21:15 | 40.27178 | -74.40743 | 25010 ft | 431 kts | 36° |
| 2026-04-21 21:16 | 40.29347 | -74.38023 | 25026 ft | 432 kts | 36° |
| 2026-04-21 21:16 | 40.31509 | -74.35286 | 25038 ft | 432 kts | 36° |
| 2026-04-21 21:16 | 40.33638 | -74.32584 | 25032 ft | 431 kts | 36° |
| 2026-04-21 21:16 | 40.35796 | -74.29846 | 25022 ft | 431 kts | 36° |
| 2026-04-21 21:17 | 40.37952 | -74.27110 | 25018 ft | 431 kts | 36° |
| 2026-04-21 21:17 | 40.40106 | -74.24375 | 25001 ft | 430 kts | 36° |
| 2026-04-21 21:17 | 40.42252 | -74.21647 | 24991 ft | 427 kts | 36° |
| 2026-04-21 21:17 | 40.44338 | -74.18947 | 24903 ft | 414 kts | 39° |
| 2026-04-21 21:18 | 40.45955 | -74.15805 | 24794 ft | 419 kts | 58° |
| 2026-04-21 21:18 | 40.46745 | -74.12114 | 24731 ft | 424 kts | 77° |
| 2026-04-21 21:18 | 40.46651 | -74.08246 | 24666 ft | 424 kts | 93° |
| 2026-04-21 21:18 | 40.46110 | -74.04533 | 24635 ft | 414 kts | 96° |
| 2026-04-21 21:19 | 40.45485 | -74.00896 | 24566 ft | 404 kts | 97° |
| 2026-04-21 21:19 | 40.44843 | -73.97353 | 24499 ft | 394 kts | 97° |
| 2026-04-21 21:19 | 40.44196 | -73.93880 | 24260 ft | 390 kts | 97° |
| 2026-04-21 21:19 | 40.43546 | -73.90419 | 23912 ft | 390 kts | 97° |
| 2026-04-21 21:20 | 40.42897 | -73.86963 | 23502 ft | 390 kts | 97° |
| 2026-04-21 21:20 | 40.42250 | -73.83519 | 23161 ft | 387 kts | 97° |
| 2026-04-21 21:20 | 40.41716 | -73.80085 | 22817 ft | 377 kts | 85° |
| 2026-04-21 21:20 | 40.41957 | -73.76777 | 22444 ft | 354 kts | 63° |
| 2026-04-21 21:21 | 40.42984 | -73.73971 | 22135 ft | 333 kts | 46° |
| 2026-04-21 21:21 | 40.44298 | -73.71500 | 21773 ft | 328 kts | 43° |
| 2026-04-21 21:21 | 40.45672 | -73.69077 | 21098 ft | 332 kts | 43° |
| 2026-04-21 21:21 | 40.47068 | -73.66666 | 20478 ft | 331 kts | 43° |
| 2026-04-21 21:22 | 40.48471 | -73.64262 | 19881 ft | 331 kts | 42° |
| 2026-04-21 21:22 | 40.49875 | -73.61865 | 19275 ft | 330 kts | 42° |
| 2026-04-21 21:22 | 40.51278 | -73.59480 | 18696 ft | 330 kts | 43° |
| 2026-04-21 21:22 | 40.52476 | -73.56859 | 17995 ft | 346 kts | 62° |
| 2026-04-21 21:23 | 40.52963 | -73.53708 | 17366 ft | 357 kts | 77° |
| 2026-04-21 21:23 | 40.53243 | -73.50483 | 16699 ft | 349 kts | 67° |
| 2026-04-21 21:23 | 40.54200 | -73.47649 | 15859 ft | 334 kts | 45° |
| 2026-04-21 21:23 | 40.55786 | -73.45497 | 15022 ft | 326 kts | 32° |
| 2026-04-21 21:24 | 40.57576 | -73.43749 | 14185 ft | 321 kts | 20° |
| 2026-04-21 21:24 | 40.59656 | -73.42927 | 13243 ft | 308 kts | 357° |
| 2026-04-21 21:24 | 40.61737 | -73.43258 | 12342 ft | 300 kts | 338° |
| 2026-04-21 21:24 | 40.63568 | -73.44503 | 11449 ft | 297 kts | 321° |
| 2026-04-21 21:25 | 40.65008 | -73.46441 | 10581 ft | 297 kts | 307° |
| 2026-04-21 21:25 | 40.65990 | -73.48833 | 9671 ft | 300 kts | 290° |
| 2026-04-21 21:25 | 40.66383 | -73.51552 | 8760 ft | 304 kts | 279° |
| 2026-04-21 21:25 | 40.66594 | -73.54324 | 7858 ft | 305 kts | 278° |
| 2026-04-21 21:26 | 40.66797 | -73.57118 | 6986 ft | 306 kts | 278° |
| 2026-04-21 21:26 | 40.67011 | -73.59916 | 6081 ft | 307 kts | 277° |
| 2026-04-21 21:26 | 40.67232 | -73.62706 | 5171 ft | 305 kts | 277° |
| 2026-04-21 21:26 | 40.67574 | -73.65374 | 4205 ft | 286 kts | 288° |
| 2026-04-21 21:27 | 40.68497 | -73.67599 | 3541 ft | 267 kts | 302° |
| 2026-04-21 21:27 | 40.69447 | -73.69523 | 3323 ft | 236 kts | 301° |
| 2026-04-21 21:27 | 40.70273 | -73.71222 | 3169 ft | 209 kts | 300° |
| 2026-04-21 21:27 | 40.71035 | -73.72772 | 2819 ft | 195 kts | 301° |
| 2026-04-21 21:28 | 40.71756 | -73.74208 | 2538 ft | 182 kts | 300° |
| 2026-04-21 21:28 | 40.72453 | -73.75595 | 2189 ft | 182 kts | 301° |
| 2026-04-21 21:28 | 40.73820 | -73.78470 | 1613 ft | 187 kts | 297° |
| 2026-04-21 21:29 | 40.74463 | -73.79918 | 1385 ft | 179 kts | 297° |
| 2026-04-21 21:29 | 40.75097 | -73.81293 | 1072 ft | 171 kts | 297° |
| 2026-04-21 21:29 | 40.75720 | -73.82591 | 809 ft | 164 kts | 300° |
| 2026-04-21 21:29 | 40.76339 | -73.83867 | 436 ft | 167 kts | 299° |
| 2026-04-21 21:30 | 40.76943 | -73.85152 | 166 ft | 162 kts | 298° |
| 2026-04-21 21:30 | 40.77522 | -73.86350 | 15 ft | 147 kts | 298° |
| 2026-04-21 21:30 | 40.77947 | -73.87260 | 14 ft | 53 kts | 303° |
| 2026-04-21 21:30 | 40.77907 | -73.87445 | 15 ft | 23 kts | 211° |
| 2026-04-21 21:31 | 40.77783 | -73.87549 | 17 ft | 9 kts | 212° |
| 2026-04-21 21:31 | 40.77727 | -73.87556 | 19 ft | 9 kts | 129° |
| 2026-04-21 21:31 | 40.77716 | -73.87459 | 19 ft | 12 kts | 126° |
| 2026-04-21 21:31 | 40.77634 | -73.87441 | 19 ft | 11 kts | 162° |
| 2026-04-21 21:32 | 40.77612 | -73.87415 | 19 ft | 2 kts | 134° |
| 2026-04-21 21:32 | 40.77609 | -73.87410 | 19 ft | 0 kts | 134° |